createdAt,value
2018-09-30T00:00:37.441Z,0.00
2018-09-30T00:01:37.669Z,0.00
2018-09-30T00:02:37.871Z,0.00
2018-09-30T00:03:38.104Z,0.00
2018-09-30T00:04:38.313Z,0.00
2018-09-30T00:05:38.533Z,0.00
2018-09-30T00:06:38.757Z,0.00
2018-09-30T00:07:38.979Z,0.00
2018-09-30T00:08:39.201Z,0.00
2018-09-30T00:09:39.430Z,0.00
2018-09-30T00:10:39.645Z,0.00
2018-09-30T00:11:39.868Z,0.00
2018-09-30T00:12:40.093Z,0.00
2018-09-30T00:13:41.271Z,0.00
2018-09-30T00:14:40.489Z,0.00
2018-09-30T00:15:40.711Z,0.00
2018-09-30T00:16:40.936Z,0.00
2018-09-30T00:17:41.158Z,0.00
2018-09-30T00:18:41.380Z,0.00
2018-09-30T00:19:41.689Z,0.00
2018-09-30T00:20:41.826Z,0.00
2018-09-30T00:21:42.067Z,0.00
2018-09-30T00:22:42.288Z,0.00
2018-09-30T00:23:42.510Z,0.00
2018-09-30T00:24:42.732Z,0.00
2018-09-30T00:25:42.956Z,0.00
2018-09-30T00:26:43.179Z,0.00
2018-09-30T00:27:43.400Z,0.00
2018-09-30T00:28:43.634Z,0.00
2018-09-30T00:29:43.854Z,0.00
2018-09-30T00:30:44.078Z,0.00
2018-09-30T00:31:44.304Z,0.00
2018-09-30T00:32:44.525Z,0.00
2018-09-30T00:33:44.741Z,0.00
2018-09-30T00:34:44.962Z,0.00
2018-09-30T00:35:45.184Z,0.00
2018-09-30T00:36:45.406Z,0.00
2018-09-30T00:37:45.642Z,0.00
2018-09-30T00:38:45.864Z,0.00
2018-09-30T00:39:46.088Z,0.00
2018-09-30T00:40:46.311Z,0.00
2018-09-30T00:41:46.532Z,0.00
2018-09-30T00:42:46.752Z,0.00
2018-09-30T00:43:46.970Z,0.00
2018-09-30T00:44:47.192Z,0.00
2018-09-30T00:45:47.415Z,0.00
2018-09-30T00:46:48.272Z,0.00
2018-09-30T00:47:47.870Z,0.00
2018-09-30T00:48:48.091Z,0.00
2018-09-30T00:49:48.314Z,0.00
2018-09-30T00:50:48.536Z,0.00
2018-09-30T00:51:48.759Z,0.00
2018-09-30T00:52:48.983Z,0.00
2018-09-30T00:53:49.214Z,0.00
2018-09-30T00:54:49.436Z,0.00
2018-09-30T00:55:49.658Z,0.00
2018-09-30T00:56:49.879Z,0.00
2018-09-30T00:57:50.100Z,0.00
2018-09-30T00:58:50.320Z,0.00
2018-09-30T00:59:50.542Z,0.00
2018-09-30T01:00:50.765Z,0.00
2018-09-30T01:01:50.985Z,0.00
2018-09-30T01:02:51.209Z,0.00
2018-09-30T01:03:52.279Z,0.00
2018-09-30T01:04:51.623Z,0.00
2018-09-30T01:05:51.849Z,0.00
2018-09-30T01:06:52.070Z,0.00
2018-09-30T01:07:52.291Z,0.00
2018-09-30T01:08:52.513Z,0.00
2018-09-30T01:09:52.740Z,0.00
2018-09-30T01:10:52.958Z,0.00
2018-09-30T01:11:53.181Z,0.00
2018-09-30T01:12:53.403Z,0.00
2018-09-30T01:13:53.624Z,0.00
2018-09-30T01:14:53.844Z,0.00
2018-09-30T01:15:54.063Z,0.00
2018-09-30T01:16:54.291Z,0.00
2018-09-30T01:17:54.513Z,0.00
2018-09-30T01:18:54.734Z,0.00
2018-09-30T01:19:54.954Z,0.00
2018-09-30T01:20:55.176Z,0.00
2018-09-30T01:21:55.399Z,0.00
2018-09-30T01:22:55.621Z,0.00
2018-09-30T01:23:55.845Z,0.00
2018-09-30T01:24:56.070Z,0.00
2018-09-30T01:25:56.297Z,0.00
2018-09-30T01:26:56.508Z,0.00
2018-09-30T01:27:56.734Z,0.00
2018-09-30T01:28:56.952Z,0.00
2018-09-30T01:29:57.175Z,0.00
2018-09-30T01:30:57.400Z,0.00
2018-09-30T01:31:57.621Z,0.00
2018-09-30T01:32:57.842Z,0.00
2018-09-30T01:33:58.065Z,0.00
2018-09-30T01:34:58.290Z,0.00
2018-09-30T01:35:58.511Z,0.00
2018-09-30T01:36:58.739Z,0.00
2018-09-30T01:37:58.955Z,0.00
2018-09-30T01:38:59.175Z,0.00
2018-09-30T01:39:59.400Z,0.00
2018-09-30T01:40:59.661Z,0.00
2018-09-30T01:41:59.880Z,0.00
2018-09-30T01:43:07.781Z,0.00
2018-09-30T01:44:08.042Z,0.00
2018-09-30T01:45:00.561Z,0.00
2018-09-30T01:46:00.788Z,0.00
2018-09-30T01:47:08.703Z,0.00
2018-09-30T01:48:01.232Z,0.00
2018-09-30T01:49:01.460Z,0.00
2018-09-30T01:50:01.691Z,0.00
2018-09-30T01:51:01.905Z,0.00
2018-09-30T01:52:09.856Z,0.00
2018-09-30T01:53:02.357Z,0.00
2018-09-30T01:54:02.579Z,0.00
2018-09-30T01:55:02.800Z,0.00
2018-09-30T01:56:03.027Z,0.00
2018-09-30T01:57:03.249Z,0.00
2018-09-30T01:58:03.476Z,0.00
2018-09-30T01:59:03.693Z,0.00
2018-09-30T02:00:03.918Z,0.00
2018-09-30T02:01:04.145Z,0.00
2018-09-30T02:02:04.375Z,0.00
2018-09-30T02:03:04.582Z,0.00
2018-09-30T02:04:04.802Z,0.00
2018-09-30T02:05:05.025Z,0.00
2018-09-30T02:06:05.243Z,0.00
2018-09-30T02:07:05.465Z,0.00
2018-09-30T02:08:05.690Z,0.00
2018-09-30T02:09:05.919Z,0.00
2018-09-30T02:10:06.141Z,0.00
2018-09-30T02:11:06.354Z,0.00
2018-09-30T02:12:06.579Z,0.00
2018-09-30T02:13:06.797Z,0.00
2018-09-30T02:14:07.021Z,0.00
2018-09-30T02:15:07.241Z,0.00
2018-09-30T02:16:07.462Z,0.00
2018-09-30T02:17:07.684Z,0.00
2018-09-30T02:18:07.903Z,0.00
2018-09-30T02:19:08.124Z,0.00
2018-09-30T02:20:08.347Z,0.00
2018-09-30T02:21:08.569Z,0.00
2018-09-30T02:22:08.792Z,0.00
2018-09-30T02:23:09.010Z,0.00
2018-09-30T02:24:09.233Z,0.00
2018-09-30T02:25:09.453Z,0.00
2018-09-30T02:26:09.671Z,0.00
2018-09-30T02:27:09.888Z,0.00
2018-09-30T02:28:10.114Z,0.00
2018-09-30T02:29:10.332Z,0.00
2018-09-30T02:30:10.558Z,0.00
2018-09-30T02:31:10.775Z,0.00
2018-09-30T02:32:11.000Z,0.00
2018-09-30T02:33:11.212Z,0.00
2018-09-30T02:34:11.436Z,0.00
2018-09-30T02:35:11.658Z,0.00
2018-09-30T02:36:11.881Z,0.00
2018-09-30T02:37:12.108Z,0.00
2018-09-30T02:38:12.330Z,0.00
2018-09-30T02:39:12.557Z,0.00
2018-09-30T02:40:12.808Z,0.00
2018-09-30T02:41:12.998Z,0.00
2018-09-30T02:42:13.216Z,0.00
2018-09-30T02:43:13.444Z,0.00
2018-09-30T02:44:13.658Z,0.00
2018-09-30T02:45:13.878Z,0.00
2018-09-30T02:46:14.101Z,0.00
2018-09-30T02:47:14.358Z,0.00
2018-09-30T02:48:14.543Z,0.00
2018-09-30T02:49:14.772Z,0.00
2018-09-30T02:50:15.015Z,0.00
2018-09-30T02:51:15.247Z,0.00
2018-09-30T02:52:15.467Z,0.00
2018-09-30T02:53:15.691Z,0.00
2018-09-30T02:54:15.913Z,0.00
2018-09-30T02:55:16.137Z,0.00
2018-09-30T02:56:16.357Z,0.00
2018-09-30T02:57:16.576Z,0.00
2018-09-30T02:58:16.802Z,0.00
2018-09-30T02:59:17.022Z,0.00
2018-09-30T03:00:17.250Z,0.00
2018-09-30T03:01:17.467Z,0.00
2018-09-30T03:02:17.693Z,0.00
2018-09-30T03:03:17.909Z,0.00
2018-09-30T03:04:18.130Z,0.00
2018-09-30T03:05:18.350Z,0.00
2018-09-30T03:06:18.573Z,0.00
2018-09-30T03:07:18.792Z,0.00
2018-09-30T03:08:19.012Z,0.00
2018-09-30T03:09:19.241Z,0.00
2018-09-30T03:10:19.458Z,0.00
2018-09-30T03:11:19.681Z,0.00
2018-09-30T03:12:19.899Z,0.00
2018-09-30T03:13:20.116Z,0.00
2018-09-30T03:14:20.335Z,0.00
2018-09-30T03:15:20.558Z,0.00
2018-09-30T03:16:20.781Z,0.00
2018-09-30T03:17:21.003Z,0.00
2018-09-30T03:18:21.217Z,0.00
2018-09-30T03:19:21.439Z,0.00
2018-09-30T03:20:21.660Z,0.00
2018-09-30T03:21:21.883Z,0.00
2018-09-30T03:22:22.105Z,0.00
2018-09-30T03:23:22.326Z,0.00
2018-09-30T03:24:22.551Z,0.00
2018-09-30T03:25:22.770Z,0.00
2018-09-30T03:26:22.991Z,0.00
2018-09-30T03:27:23.212Z,0.00
2018-09-30T03:28:23.432Z,0.00
2018-09-30T03:29:23.654Z,0.00
2018-09-30T03:30:23.874Z,0.00
2018-09-30T03:31:24.094Z,0.00
2018-09-30T03:32:24.315Z,0.00
2018-09-30T03:33:24.534Z,0.00
2018-09-30T03:34:24.753Z,0.00
2018-09-30T03:35:24.978Z,0.00
2018-09-30T03:36:25.194Z,0.00
2018-09-30T03:37:25.416Z,0.00
2018-09-30T03:38:25.636Z,0.00
2018-09-30T03:39:25.918Z,0.00
2018-09-30T03:40:26.077Z,0.00
2018-09-30T03:41:26.297Z,0.00
2018-09-30T03:42:26.516Z,0.00
2018-09-30T03:43:26.736Z,0.00
2018-09-30T03:44:26.959Z,0.00
2018-09-30T03:45:27.180Z,0.00
2018-09-30T03:46:27.399Z,0.00
2018-09-30T03:47:27.619Z,0.00
2018-09-30T03:48:27.841Z,0.00
2018-09-30T03:49:28.062Z,0.00
2018-09-30T03:50:28.285Z,0.00
2018-09-30T03:51:28.505Z,0.00
2018-09-30T03:52:28.730Z,0.00
2018-09-30T03:53:28.955Z,0.00
2018-09-30T03:54:29.173Z,0.00
2018-09-30T03:55:29.404Z,0.00
2018-09-30T03:56:29.626Z,0.00
2018-09-30T03:57:29.833Z,0.00
2018-09-30T03:58:30.053Z,0.00
2018-09-30T03:59:30.280Z,0.00
2018-09-30T04:00:30.509Z,0.00
2018-09-30T04:01:30.721Z,0.00
2018-09-30T04:02:30.959Z,0.00
2018-09-30T04:03:31.163Z,0.00
2018-09-30T04:04:31.390Z,0.00
2018-09-30T04:05:31.656Z,0.00
2018-09-30T04:06:31.836Z,0.00
2018-09-30T04:07:32.048Z,0.00
2018-09-30T04:08:32.264Z,0.00
2018-09-30T04:09:32.488Z,0.00
2018-09-30T04:10:32.709Z,0.00
2018-09-30T04:11:32.930Z,0.00
2018-09-30T04:12:33.151Z,0.00
2018-09-30T04:13:33.379Z,0.00
2018-09-30T04:14:41.483Z,0.00
2018-09-30T04:15:33.836Z,0.00
2018-09-30T04:16:34.050Z,0.00
2018-09-30T04:17:34.369Z,0.00
2018-09-30T04:18:34.475Z,0.00
2018-09-30T04:19:34.697Z,0.00
2018-09-30T04:20:34.940Z,0.00
2018-09-30T04:21:35.138Z,0.00
2018-09-30T04:22:35.358Z,0.00
2018-09-30T04:23:35.579Z,0.00
2018-09-30T04:24:35.797Z,0.00
2018-09-30T04:25:36.065Z,0.00
2018-09-30T04:26:36.239Z,0.00
2018-09-30T04:27:36.460Z,0.00
2018-09-30T04:28:36.692Z,0.00
2018-09-30T04:29:36.904Z,0.00
2018-09-30T04:30:37.127Z,0.00
2018-09-30T04:31:37.339Z,0.00
2018-09-30T04:32:37.570Z,0.00
2018-09-30T04:33:37.787Z,0.00
2018-09-30T04:34:38.018Z,0.00
2018-09-30T04:35:38.240Z,0.00
2018-09-30T04:36:38.451Z,0.00
2018-09-30T04:37:38.670Z,0.00
2018-09-30T04:38:38.936Z,0.00
2018-09-30T04:39:39.118Z,0.00
2018-09-30T04:40:39.378Z,0.00
2018-09-30T04:41:39.558Z,0.00
2018-09-30T04:42:39.776Z,0.00
2018-09-30T04:43:39.988Z,0.00
2018-09-30T04:44:40.219Z,4.00
2018-09-30T04:45:40.424Z,4.00
2018-09-30T04:46:40.654Z,0.00
2018-09-30T04:47:40.869Z,0.00
2018-09-30T04:48:41.089Z,4.00
2018-09-30T04:49:41.317Z,0.00
2018-09-30T04:50:41.530Z,4.00
2018-09-30T04:51:41.755Z,4.00
2018-09-30T04:52:41.994Z,8.00
2018-09-30T04:53:42.308Z,8.00
2018-09-30T04:54:42.414Z,8.00
2018-09-30T04:55:42.638Z,8.00
2018-09-30T04:56:42.848Z,8.00
2018-09-30T04:57:43.049Z,8.00
2018-09-30T04:58:43.263Z,12.00
2018-09-30T04:59:43.488Z,12.00
2018-09-30T05:00:43.707Z,16.00
2018-09-30T05:01:43.935Z,20.00
2018-09-30T05:02:44.160Z,20.00
2018-09-30T05:03:44.379Z,28.00
2018-09-30T05:04:44.595Z,28.00
2018-09-30T05:05:44.838Z,36.00
2018-09-30T05:06:45.039Z,40.00
2018-09-30T05:07:45.256Z,48.00
2018-09-30T05:08:45.478Z,56.00
2018-09-30T05:09:45.697Z,64.00
2018-09-30T05:10:45.956Z,72.00
2018-09-30T05:11:46.127Z,76.00
2018-09-30T05:12:46.342Z,88.00
2018-09-30T05:13:46.565Z,100.00
2018-09-30T05:14:46.795Z,112.00
2018-09-30T05:15:47.065Z,132.00
2018-09-30T05:16:47.231Z,144.00
2018-09-30T05:17:47.455Z,156.00
2018-09-30T05:18:47.673Z,172.00
2018-09-30T05:19:47.895Z,192.00
2018-09-30T05:20:48.129Z,208.00
2018-09-30T05:21:48.345Z,224.00
2018-09-30T05:22:48.548Z,244.00
2018-09-30T05:23:48.765Z,256.00
2018-09-30T05:24:48.994Z,280.00
2018-09-30T05:25:49.260Z,300.00
2018-09-30T05:26:49.427Z,324.00
2018-09-30T05:27:49.648Z,340.00
2018-09-30T05:28:50.392Z,356.00
2018-09-30T05:29:50.112Z,376.00
2018-09-30T05:30:50.332Z,400.00
2018-09-30T05:31:50.552Z,424.00
2018-09-30T05:32:50.779Z,460.00
2018-09-30T05:33:50.995Z,504.00
2018-09-30T05:34:51.238Z,536.00
2018-09-30T05:35:51.441Z,568.00
2018-09-30T05:36:51.657Z,588.00
2018-09-30T05:37:51.884Z,608.00
2018-09-30T05:38:52.104Z,640.00
2018-09-30T05:39:52.326Z,668.00
2018-09-30T05:40:52.543Z,704.00
2018-09-30T05:41:52.767Z,724.00
2018-09-30T05:42:52.985Z,748.00
2018-09-30T05:43:53.205Z,752.00
2018-09-30T05:44:53.428Z,784.00
2018-09-30T05:45:53.646Z,828.00
2018-09-30T05:46:53.871Z,888.00
2018-09-30T05:47:54.098Z,948.00
2018-09-30T05:48:54.355Z,1020.00
2018-09-30T05:49:54.555Z,1052.00
2018-09-30T05:50:54.749Z,1084.00
2018-09-30T05:51:54.975Z,1096.00
2018-09-30T05:52:55.188Z,1096.00
2018-09-30T05:53:55.417Z,1140.00
2018-09-30T05:54:55.631Z,1148.00
2018-09-30T05:55:55.871Z,1176.00
2018-09-30T05:56:56.073Z,1208.00
2018-09-30T05:57:56.371Z,1272.00
2018-09-30T05:58:56.516Z,1344.00
2018-09-30T05:59:56.739Z,1428.00
2018-09-30T06:00:56.960Z,1528.00
2018-09-30T06:01:57.181Z,1580.00
2018-09-30T06:02:57.405Z,1596.00
2018-09-30T06:03:57.643Z,1648.00
2018-09-30T06:04:57.852Z,1724.00
2018-09-30T06:05:58.071Z,1680.00
2018-09-30T06:06:58.299Z,1652.00
2018-09-30T06:07:58.521Z,1716.00
2018-09-30T06:08:58.804Z,1820.00
2018-09-30T06:09:58.960Z,1796.00
2018-09-30T06:10:59.182Z,1732.00
2018-09-30T06:11:59.410Z,1708.00
2018-09-30T06:12:59.626Z,1768.00
2018-09-30T06:13:59.882Z,1864.00
2018-09-30T06:15:00.075Z,1988.00
2018-09-30T06:16:00.322Z,2060.00
2018-09-30T06:17:00.523Z,1996.00
2018-09-30T06:18:00.745Z,1916.00
2018-09-30T06:19:00.959Z,1908.00
2018-09-30T06:20:01.205Z,1840.00
2018-09-30T06:21:01.399Z,1820.00
2018-09-30T06:22:01.627Z,1876.00
2018-09-30T06:23:01.841Z,2140.00
2018-09-30T06:24:02.405Z,2452.00
2018-09-30T06:25:02.285Z,2552.00
2018-09-30T06:26:02.850Z,2676.00
2018-09-30T06:27:02.727Z,2736.00
2018-09-30T06:28:02.950Z,2680.00
2018-09-30T06:29:03.176Z,2676.00
2018-09-30T06:30:03.397Z,2596.00
2018-09-30T06:31:03.619Z,2428.00
2018-09-30T06:32:03.871Z,2388.00
2018-09-30T06:33:04.060Z,2584.00
2018-09-30T06:34:04.283Z,2708.00
2018-09-30T06:35:04.511Z,3124.00
2018-09-30T06:36:04.729Z,3424.00
2018-09-30T06:37:04.994Z,3808.00
2018-09-30T06:38:05.170Z,4188.00
2018-09-30T06:39:05.392Z,4184.00
2018-09-30T06:40:05.616Z,3832.00
2018-09-30T06:41:05.839Z,3668.00
2018-09-30T06:42:06.064Z,3768.00
2018-09-30T06:43:06.288Z,3948.00
2018-09-30T06:44:06.508Z,4072.00
2018-09-30T06:45:06.815Z,4208.00
2018-09-30T06:46:06.950Z,4200.00
2018-09-30T06:47:07.176Z,4496.00
2018-09-30T06:48:07.397Z,4560.00
2018-09-30T06:49:07.627Z,4684.00
2018-09-30T06:50:07.849Z,4848.00
2018-09-30T06:51:08.073Z,4680.00
2018-09-30T06:52:08.293Z,4584.00
2018-09-30T06:53:08.517Z,4436.00
2018-09-30T06:54:08.739Z,4532.00
2018-09-30T06:55:08.994Z,4544.00
2018-09-30T06:56:09.175Z,4740.00
2018-09-30T06:57:09.403Z,4876.00
2018-09-30T06:58:09.631Z,4800.00
2018-09-30T06:59:09.852Z,4684.00
2018-09-30T07:00:10.070Z,4456.00
2018-09-30T07:01:10.291Z,4260.00
2018-09-30T07:02:10.516Z,4476.00
2018-09-30T07:03:10.739Z,4768.00
2018-09-30T07:04:10.961Z,4928.00
2018-09-30T07:05:11.183Z,4720.00
2018-09-30T07:06:11.405Z,4536.00
2018-09-30T07:07:11.626Z,4316.00
2018-09-30T07:08:11.854Z,4276.00
2018-09-30T07:09:12.097Z,4348.00
2018-09-30T07:10:12.296Z,4636.00
2018-09-30T07:11:12.521Z,4776.00
2018-09-30T07:12:12.741Z,4584.00
2018-09-30T07:13:12.975Z,4268.00
2018-09-30T07:14:13.181Z,4376.00
2018-09-30T07:15:13.406Z,4852.00
2018-09-30T07:16:13.630Z,4932.00
2018-09-30T07:17:13.856Z,4464.00
2018-09-30T07:18:14.075Z,4232.00
2018-09-30T07:19:14.306Z,4356.00
2018-09-30T07:20:14.525Z,4592.00
2018-09-30T07:21:14.748Z,4704.00
2018-09-30T07:22:15.003Z,4956.00
2018-09-30T07:23:15.201Z,5084.00
2018-09-30T07:24:15.431Z,5180.00
2018-09-30T07:25:15.653Z,5360.00
2018-09-30T07:26:15.877Z,5584.00
2018-09-30T07:27:16.106Z,6120.00
2018-09-30T07:28:16.327Z,6032.00
2018-09-30T07:29:16.552Z,5796.00
2018-09-30T07:30:16.776Z,5516.00
2018-09-30T07:31:17.003Z,5384.00
2018-09-30T07:32:17.227Z,5896.00
2018-09-30T07:33:17.453Z,6420.00
2018-09-30T07:34:17.679Z,6828.00
2018-09-30T07:35:17.901Z,7044.00
2018-09-30T07:36:18.126Z,7048.00
2018-09-30T07:37:18.355Z,6964.00
2018-09-30T07:38:18.576Z,7000.00
2018-09-30T07:39:18.826Z,7100.00
2018-09-30T07:40:19.026Z,7064.00
2018-09-30T07:41:19.248Z,7124.00
2018-09-30T07:42:19.474Z,7152.00
2018-09-30T07:43:19.699Z,6900.00
2018-09-30T07:44:19.924Z,6756.00
2018-09-30T07:45:20.156Z,6684.00
2018-09-30T07:46:20.379Z,6560.00
2018-09-30T07:47:20.601Z,6228.00
2018-09-30T07:48:21.404Z,6004.00
2018-09-30T07:49:21.004Z,5532.00
2018-09-30T07:50:21.231Z,5620.00
2018-09-30T07:51:21.459Z,5604.00
2018-09-30T07:52:21.701Z,5440.00
2018-09-30T07:53:21.910Z,5436.00
2018-09-30T07:54:22.157Z,5232.00
2018-09-30T07:55:22.373Z,5208.00
2018-09-30T07:56:22.562Z,5304.00
2018-09-30T07:57:22.787Z,5312.00
2018-09-30T07:58:23.016Z,5300.00
2018-09-30T07:59:23.244Z,5252.00
2018-09-30T08:00:23.472Z,5236.00
2018-09-30T08:01:23.704Z,5224.00
2018-09-30T08:02:23.921Z,5220.00
2018-09-30T08:03:24.150Z,5204.00
2018-09-30T08:04:24.372Z,5180.00
2018-09-30T08:05:24.600Z,5172.00
2018-09-30T08:06:24.837Z,5164.00
2018-09-30T08:07:25.054Z,5180.00
2018-09-30T08:08:25.278Z,5184.00
2018-09-30T08:09:25.518Z,5184.00
2018-09-30T08:10:25.731Z,5184.00
2018-09-30T08:11:25.957Z,5188.00
2018-09-30T08:12:26.187Z,5196.00
2018-09-30T08:13:26.410Z,5196.00
2018-09-30T08:14:26.636Z,5200.00
2018-09-30T08:15:26.865Z,5204.00
2018-09-30T08:16:27.129Z,5204.00
2018-09-30T08:17:27.316Z,5208.00
2018-09-30T08:18:27.539Z,5208.00
2018-09-30T08:19:27.774Z,5216.00
2018-09-30T08:20:27.994Z,5232.00
2018-09-30T08:21:28.217Z,5240.00
2018-09-30T08:22:28.444Z,5244.00
2018-09-30T08:23:28.672Z,5244.00
2018-09-30T08:24:28.971Z,5248.00
2018-09-30T08:25:29.122Z,5252.00
2018-09-30T08:26:29.353Z,5252.00
2018-09-30T08:27:29.581Z,5264.00
2018-09-30T08:28:29.801Z,5268.00
2018-09-30T08:29:30.027Z,5272.00
2018-09-30T08:30:30.261Z,5280.00
2018-09-30T08:31:30.485Z,5280.00
2018-09-30T08:32:30.713Z,5284.00
2018-09-30T08:33:30.940Z,5288.00
2018-09-30T08:34:31.164Z,5296.00
2018-09-30T08:35:31.394Z,5292.00
2018-09-30T08:36:31.618Z,5308.00
2018-09-30T08:37:31.848Z,5320.00
2018-09-30T08:38:32.075Z,5332.00
2018-09-30T08:39:32.374Z,5352.00
2018-09-30T08:40:32.532Z,5324.00
2018-09-30T08:41:32.756Z,5296.00
2018-09-30T08:42:32.981Z,5264.00
2018-09-30T08:43:33.208Z,5216.00
2018-09-30T08:44:33.431Z,5196.00
2018-09-30T08:45:33.658Z,5192.00
2018-09-30T08:46:33.895Z,5204.00
2018-09-30T08:47:34.177Z,5216.00
2018-09-30T08:48:34.346Z,5204.00
2018-09-30T08:49:34.574Z,5256.00
2018-09-30T08:50:34.804Z,5296.00
2018-09-30T08:51:35.029Z,5320.00
2018-09-30T08:52:35.256Z,5436.00
2018-09-30T08:53:35.481Z,5344.00
2018-09-30T08:54:35.710Z,5348.00
2018-09-30T08:55:35.939Z,5352.00
2018-09-30T08:56:36.164Z,5356.00
2018-09-30T08:57:36.391Z,5356.00
2018-09-30T08:58:36.618Z,5368.00
2018-09-30T08:59:36.851Z,5360.00
2018-09-30T09:00:37.088Z,5340.00
2018-09-30T09:01:37.308Z,5320.00
2018-09-30T09:02:37.535Z,5292.00
2018-09-30T09:03:37.763Z,5292.00
2018-09-30T09:04:37.994Z,5312.00
2018-09-30T09:05:38.221Z,5336.00
2018-09-30T09:06:38.448Z,5360.00
2018-09-30T09:07:38.676Z,5356.00
2018-09-30T09:08:38.901Z,5352.00
2018-09-30T09:09:39.144Z,5360.00
2018-09-30T09:10:39.355Z,5352.00
2018-09-30T09:11:39.583Z,5352.00
2018-09-30T09:12:39.813Z,5352.00
2018-09-30T09:13:40.037Z,5356.00
2018-09-30T09:14:40.267Z,5360.00
2018-09-30T09:15:40.495Z,5364.00
2018-09-30T09:16:40.726Z,5364.00
2018-09-30T09:17:40.948Z,5364.00
2018-09-30T09:18:41.176Z,5364.00
2018-09-30T09:19:41.404Z,5364.00
2018-09-30T09:20:41.636Z,5372.00
2018-09-30T09:21:41.859Z,5364.00
2018-09-30T09:22:42.136Z,5360.00
2018-09-30T09:23:42.318Z,5364.00
2018-09-30T09:24:42.561Z,5364.00
2018-09-30T09:25:42.768Z,5364.00
2018-09-30T09:26:42.993Z,5372.00
2018-09-30T09:27:43.227Z,5368.00
2018-09-30T09:28:43.447Z,5368.00
2018-09-30T09:29:43.677Z,5368.00
2018-09-30T09:30:43.903Z,5372.00
2018-09-30T09:31:44.180Z,5376.00
2018-09-30T09:32:44.358Z,5372.00
2018-09-30T09:33:44.585Z,5376.00
2018-09-30T09:34:45.131Z,5376.00
2018-09-30T09:35:45.094Z,5376.00
2018-09-30T09:36:45.319Z,5372.00
2018-09-30T09:37:45.555Z,5372.00
2018-09-30T09:38:45.775Z,5372.00
2018-09-30T09:39:46.003Z,5368.00
2018-09-30T09:40:46.234Z,5364.00
2018-09-30T09:41:46.454Z,5364.00
2018-09-30T09:42:46.685Z,5368.00
2018-09-30T09:43:46.914Z,5364.00
2018-09-30T09:44:47.139Z,5364.00
2018-09-30T09:45:47.369Z,5364.00
2018-09-30T09:46:47.595Z,5364.00
2018-09-30T09:47:47.821Z,5360.00
2018-09-30T09:48:48.054Z,5364.00
2018-09-30T09:49:48.271Z,5368.00
2018-09-30T09:50:48.495Z,5368.00
2018-09-30T09:51:48.723Z,5360.00
2018-09-30T09:52:48.948Z,5364.00
2018-09-30T09:53:49.175Z,5368.00
2018-09-30T09:54:49.403Z,5364.00
2018-09-30T09:55:49.626Z,5368.00
2018-09-30T09:56:49.855Z,5368.00
2018-09-30T09:57:50.084Z,5372.00
2018-09-30T09:58:50.381Z,5372.00
2018-09-30T09:59:50.537Z,5372.00
2018-09-30T10:00:50.768Z,5376.00
2018-09-30T10:01:50.991Z,5376.00
2018-09-30T10:02:51.219Z,5380.00
2018-09-30T10:03:51.448Z,5372.00
2018-09-30T10:04:51.683Z,5376.00
2018-09-30T10:05:51.904Z,5380.00
2018-09-30T10:06:52.135Z,5380.00
2018-09-30T10:07:52.360Z,5388.00
2018-09-30T10:08:52.590Z,5380.00
2018-09-30T10:09:52.816Z,5380.00
2018-09-30T10:10:53.049Z,5388.00
2018-09-30T10:11:53.275Z,5388.00
2018-09-30T10:12:53.500Z,5388.00
2018-09-30T10:13:53.731Z,5392.00
2018-09-30T10:14:53.958Z,5392.00
2018-09-30T10:15:54.187Z,5392.00
2018-09-30T10:16:54.416Z,5396.00
2018-09-30T10:17:54.643Z,5404.00
2018-09-30T10:18:54.867Z,5400.00
2018-09-30T10:19:55.095Z,5400.00
2018-09-30T10:20:55.322Z,5400.00
2018-09-30T10:21:55.551Z,5404.00
2018-09-30T10:22:55.779Z,5408.00
2018-09-30T10:23:56.007Z,5404.00
2018-09-30T10:24:56.235Z,5408.00
2018-09-30T10:25:56.465Z,5408.00
2018-09-30T10:26:56.691Z,5412.00
2018-09-30T10:27:56.918Z,5380.00
2018-09-30T10:28:57.152Z,5396.00
2018-09-30T10:29:57.375Z,5404.00
2018-09-30T10:30:57.604Z,5404.00
2018-09-30T10:31:57.831Z,5408.00
2018-09-30T10:32:58.057Z,5420.00
2018-09-30T10:33:58.287Z,5412.00
2018-09-30T10:34:58.519Z,5420.00
2018-09-30T10:35:58.742Z,5412.00
2018-09-30T10:36:58.974Z,5416.00
2018-09-30T10:37:59.197Z,5416.00
2018-09-30T10:38:59.496Z,5420.00
2018-09-30T10:39:59.654Z,5424.00
2018-09-30T10:40:59.881Z,5428.00
2018-09-30T10:42:00.109Z,5432.00
2018-09-30T10:43:00.337Z,5428.00
2018-09-30T10:44:00.563Z,5436.00
2018-09-30T10:45:00.796Z,5436.00
2018-09-30T10:46:01.019Z,5436.00
2018-09-30T10:47:01.245Z,5440.00
2018-09-30T10:48:01.482Z,5440.00
2018-09-30T10:49:01.698Z,5448.00
2018-09-30T10:50:01.924Z,5448.00
2018-09-30T10:51:02.150Z,5452.00
2018-09-30T10:52:02.383Z,5448.00
2018-09-30T10:53:02.607Z,5452.00
2018-09-30T10:54:02.840Z,5456.00
2018-09-30T10:55:03.064Z,5456.00
2018-09-30T10:56:03.289Z,5460.00
2018-09-30T10:57:03.526Z,5456.00
2018-09-30T10:58:03.753Z,5460.00
2018-09-30T10:59:03.984Z,5460.00
2018-09-30T11:00:04.213Z,5464.00
2018-09-30T11:01:04.443Z,5468.00
2018-09-30T11:02:04.671Z,5468.00
2018-09-30T11:03:04.900Z,5468.00
2018-09-30T11:04:05.127Z,5348.00
2018-09-30T11:05:05.355Z,5388.00
2018-09-30T11:06:05.607Z,5480.00
2018-09-30T11:07:05.832Z,5480.00
2018-09-30T11:08:06.067Z,5488.00
2018-09-30T11:09:06.292Z,5488.00
2018-09-30T11:10:06.528Z,5484.00
2018-09-30T11:11:06.747Z,5492.00
2018-09-30T11:12:06.972Z,5488.00
2018-09-30T11:13:07.200Z,5492.00
2018-09-30T11:14:07.429Z,5492.00
2018-09-30T11:15:07.658Z,5492.00
2018-09-30T11:16:07.911Z,5492.00
2018-09-30T11:17:08.110Z,5492.00
2018-09-30T11:18:08.338Z,5492.00
2018-09-30T11:19:08.565Z,5492.00
2018-09-30T11:20:08.792Z,5492.00
2018-09-30T11:21:09.020Z,5492.00
2018-09-30T11:22:09.249Z,5488.00
2018-09-30T11:23:09.477Z,5492.00
2018-09-30T11:24:09.712Z,5496.00
2018-09-30T11:25:09.934Z,5488.00
2018-09-30T11:26:10.165Z,5488.00
2018-09-30T11:27:10.399Z,5484.00
2018-09-30T11:28:10.624Z,5488.00
2018-09-30T11:29:10.853Z,5488.00
2018-09-30T11:30:11.083Z,5488.00
2018-09-30T11:31:11.308Z,5484.00
2018-09-30T11:32:11.540Z,5484.00
2018-09-30T11:33:11.771Z,5484.00
2018-09-30T11:34:12.004Z,5488.00
2018-09-30T11:35:12.237Z,5484.00
2018-09-30T11:36:12.464Z,5480.00
2018-09-30T11:37:12.693Z,5476.00
2018-09-30T11:38:12.925Z,5480.00
2018-09-30T11:39:13.148Z,5480.00
2018-09-30T11:40:13.382Z,5476.00
2018-09-30T11:41:13.615Z,5476.00
2018-09-30T11:42:13.837Z,5476.00
2018-09-30T11:43:14.069Z,5428.00
2018-09-30T11:44:14.292Z,5472.00
2018-09-30T11:45:14.522Z,5464.00
2018-09-30T11:46:14.754Z,5472.00
2018-09-30T11:47:14.987Z,5464.00
2018-09-30T11:48:15.212Z,5472.00
2018-09-30T11:49:15.441Z,5476.00
2018-09-30T11:50:15.670Z,5472.00
2018-09-30T11:51:15.897Z,5472.00
2018-09-30T11:52:16.126Z,5464.00
2018-09-30T11:53:16.358Z,5456.00
2018-09-30T11:54:16.583Z,5456.00
2018-09-30T11:55:16.812Z,5448.00
2018-09-30T11:56:17.041Z,5448.00
2018-09-30T11:57:17.270Z,5444.00
2018-09-30T11:58:17.501Z,5444.00
2018-09-30T11:59:17.730Z,5440.00
2018-09-30T12:00:17.959Z,5440.00
2018-09-30T12:01:18.245Z,5452.00
2018-09-30T12:02:18.446Z,5432.00
2018-09-30T12:03:18.649Z,5416.00
2018-09-30T12:04:18.881Z,5412.00
2018-09-30T12:05:19.113Z,5412.00
2018-09-30T12:06:19.343Z,5416.00
2018-09-30T12:07:19.569Z,5412.00
2018-09-30T12:08:19.803Z,5408.00
2018-09-30T12:09:20.030Z,5412.00
2018-09-30T12:10:20.259Z,5408.00
2018-09-30T12:11:20.484Z,5404.00
2018-09-30T12:12:20.712Z,5400.00
2018-09-30T12:13:20.944Z,5396.00
2018-09-30T12:14:21.173Z,5392.00
2018-09-30T12:15:21.407Z,5384.00
2018-09-30T12:16:21.636Z,5376.00
2018-09-30T12:17:21.864Z,5376.00
2018-09-30T12:18:22.090Z,5372.00
2018-09-30T12:19:22.317Z,5364.00
2018-09-30T12:20:22.549Z,5356.00
2018-09-30T12:21:22.780Z,5352.00
2018-09-30T12:22:23.010Z,5336.00
2018-09-30T12:23:23.240Z,5340.00
2018-09-30T12:24:23.469Z,5332.00
2018-09-30T12:25:23.697Z,5332.00
2018-09-30T12:26:23.928Z,5324.00
2018-09-30T12:27:24.159Z,5320.00
2018-09-30T12:28:24.390Z,5320.00
2018-09-30T12:29:24.625Z,5312.00
2018-09-30T12:30:24.850Z,5312.00
2018-09-30T12:31:25.085Z,5304.00
2018-09-30T12:32:25.316Z,5300.00
2018-09-30T12:33:25.546Z,5300.00
2018-09-30T12:34:25.776Z,5300.00
2018-09-30T12:35:26.007Z,5296.00
2018-09-30T12:36:26.234Z,5296.00
2018-09-30T12:37:26.507Z,5284.00